Time;durP1;ratioP1;P1;durP2;ratioP2;P2;SDS_P1;SDS_P2;PMS_P1;PMS_P2;Temp;Humidity;BMP_temperature;BMP_pressure;BME280_temperature;BME280_humidity;BME280_pressure;Samples;Min_cycle;Max_cycle;Signal;HPM_P1;HPM_P2
2022/01/06 04:32:11;;;;;;;6.90;4.67;;;;;;;8.98;56.20;98694.88;7420881;23;20234;-80
2022/01/06 04:35:32;;;;;;;5.80;4.03;;;;;;;9.04;55.71;98705.69;6809324;29;20222;-82
2022/01/06 04:38:54;;;;;;;6.90;3.40;;;;;;;9.16;55.38;98696.84;6816641;29;20241;-80
2022/01/06 04:42:16;;;;;;;9.97;5.13;;;;;;;8.92;55.50;98706.41;6782146;29;20302;-81
2022/01/06 04:45:37;;;;;;;7.40;4.17;;;;;;;8.83;55.96;98678.03;6778294;29;20217;-82
2022/01/06 04:49:00;;;;;;;9.40;4.20;;;;;;;8.99;56.39;98714.31;6789299;29;20218;-82
2022/01/06 04:52:22;;;;;;;6.43;3.83;;;;;;;8.82;56.44;98712.16;6774411;29;20234;-83
2022/01/06 04:55:43;;;;;;;4.97;4.17;;;;;;;8.79;56.55;98722.47;6783030;29;20220;-85
2022/01/06 04:59:07;;;;;;;6.00;4.10;;;;;;;8.86;57.01;98726.03;6772237;29;20279;-83
2022/01/06 05:02:29;;;;;;;8.27;4.30;;;;;;;8.81;56.96;98741.91;6775563;29;20265;-83
2022/01/06 05:05:52;;;;;;;8.67;4.43;;;;;;;8.43;56.63;98711.84;6777237;29;20217;-82
2022/01/06 05:09:15;;;;;;;7.17;4.43;;;;;;;9.00;56.18;98736.69;6786072;29;20264;-83
2022/01/06 05:12:39;;;;;;;9.13;4.23;;;;;;;8.88;56.60;98735.56;6767985;29;20279;-83
2022/01/06 05:16:01;;;;;;;7.47;4.87;;;;;;;9.03;55.77;98737.13;6773882;29;20216;-83
2022/01/06 05:19:22;;;;;;;6.27;4.53;;;;;;;8.70;55.80;98696.75;6779127;29;20265;-83
2022/01/06 05:22:46;;;;;;;6.77;4.07;;;;;;;9.09;55.55;98757.03;6769481;29;20237;-83
2022/01/06 05:26:08;;;;;;;9.33;5.00;;;;;;;8.65;55.56;98686.59;6777302;29;20209;-83
2022/01/06 05:29:29;;;;;;;8.73;4.03;;;;;;;9.04;56.05;98757.59;6784691;29;20211;-83
2022/01/06 05:32:51;;;;;;;8.77;4.83;;;;;;;8.98;55.50;98755.69;6774172;29;20242;-83
2022/01/06 05:36:13;;;;;;;7.50;4.20;;;;;;;9.03;55.68;98768.56;6772655;29;20263;-82
2022/01/06 05:39:36;;;;;;;7.37;4.67;;;;;;;9.34;55.47;98768.97;6776103;29;20288;-83
2022/01/06 05:42:57;;;;;;;6.93;4.67;;;;;;;9.35;55.02;98771.47;6777136;29;20244;-83
2022/01/06 05:46:19;;;;;;;9.03;6.47;;;;;;;9.25;55.54;98760.22;6780107;29;20261;-83
2022/01/06 05:49:41;;;;;;;8.70;5.77;;;;;;;9.09;56.24;98762.41;6775227;29;20215;-83
2022/01/06 05:53:10;;;;;;;9.70;4.43;;;;;;;9.11;56.11;98746.91;6786388;29;20241;-82
2022/01/06 05:56:33;;;;;;;6.07;4.50;;;;;;;8.94;56.28;98783.16;6791782;29;20221;-82
2022/01/06 05:59:55;;;;;;;6.83;4.20;;;;;;;8.61;56.75;98768.63;6777511;29;20231;-83
2022/01/06 06:03:16;;;;;;;9.80;4.77;;;;;;;8.93;56.39;98771.56;6783680;29;20236;-82
2022/01/06 06:06:38;;;;;;;7.63;4.20;;;;;;;9.11;55.49;98789.91;6783258;29;20213;-83
2022/01/06 06:10:00;;;;;;;7.60;4.20;;;;;;;9.22;55.40;98792.06;6785386;29;20207;-82
2022/01/06 06:13:23;;;;;;;5.50;3.57;;;;;;;9.41;55.13;98784.13;6779133;29;20260;-82
2022/01/06 06:16:44;;;;;;;7.70;3.87;;;;;;;9.41;55.20;98784.13;6780024;29;20223;-82
2022/01/06 06:20:07;;;;;;;7.07;3.93;;;;;;;9.20;55.30;98802.19;6781732;29;20229;-82
2022/01/06 06:23:29;;;;;;;6.00;3.93;;;;;;;9.38;55.14;98781.81;6782217;29;20236;-82
2022/01/06 06:26:52;;;;;;;7.17;4.27;;;;;;;9.37;54.88;98795.47;6773948;29;20214;-82
2022/01/06 06:30:15;;;;;;;8.77;5.13;;;;;;;9.29;55.70;98801.00;6774952;29;20208;-82
2022/01/06 06:33:36;;;;;;;7.33;5.30;;;;;;;9.13;56.46;98793.22;6779414;29;20213;-82
2022/01/06 06:36:58;;;;;;;9.90;4.77;;;;;;;8.67;57.11;98816.22;6779377;29;20213;-82
2022/01/06 06:40:22;;;;;;;4.87;4.30;;;;;;;8.65;57.33;98820.97;6778496;29;20320;-83
2022/01/06 06:43:44;;;;;;;7.23;3.97;;;;;;;8.10;56.71;98701.78;6781483;29;20218;-82
2022/01/06 06:47:07;;;;;;;6.07;4.20;;;;;;;8.30;58.14;98850.59;6777747;29;20205;-82
2022/01/06 06:50:28;;;;;;;9.47;5.07;;;;;;;7.83;59.43;98837.56;6778127;29;20662;-82
2022/01/06 06:53:50;;;;;;;7.13;4.83;;;;;;;7.33;60.86;98833.97;6785597;29;20273;-82
2022/01/06 06:57:12;;;;;;;7.37;4.73;;;;;;;7.83;60.64;98844.81;6783960;29;20210;-83
2022/01/06 07:00:33;;;;;;;6.90;4.90;;;;;;;7.89;60.66;98852.91;6777537;29;20337;-83
2022/01/06 07:03:56;;;;;;;8.10;4.03;;;;;;;7.95;59.93;98838.75;6777890;29;20711;-83
2022/01/06 07:07:18;;;;;;;6.07;4.60;;;;;;;7.93;59.79;98848.00;6788872;29;20261;-83
2022/01/06 07:10:39;;;;;;;14.37;5.90;;;;;;;8.32;59.67;98857.41;6775638;29;20235;-82
2022/01/06 07:14:01;;;;;;;13.00;6.10;;;;;;;8.29;59.32;98862.31;6780846;29;20220;-82
2022/01/06 07:17:23;;;;;;;11.13;5.63;;;;;;;8.43;58.96;98842.66;6781377;29;20216;-83
2022/01/06 07:20:46;;;;;;;10.20;5.60;;;;;;;8.95;58.12;98872.75;6790293;29;20245;-83
2022/01/06 07:24:07;;;;;;;14.17;5.90;;;;;;;9.02;57.91;98874.44;6784991;29;20208;-82
2022/01/06 07:27:29;;;;;;;10.27;6.03;;;;;;;8.99;56.84;98845.28;6777392;29;20208;-81
2022/01/06 07:30:50;;;;;;;9.37;4.83;;;;;;;8.95;56.92;98883.50;6781338;29;20251;-81
2022/01/06 07:34:12;;;;;;;8.67;5.13;;;;;;;8.75;56.96;98850.22;6773222;29;20214;-82
2022/01/06 07:37:35;;;;;;;8.43;5.63;;;;;;;8.94;57.09;98885.34;6787140;29;20301;-82
2022/01/06 07:40:57;;;;;;;6.63;5.03;;;;;;;8.58;57.35;98856.84;6779489;29;20352;-82
2022/01/06 07:44:18;;;;;;;12.23;7.63;;;;;;;8.89;57.19;98898.53;6780356;29;20214;-81
2022/01/06 07:47:54;;;;;;;21.40;9.03;;;;;;;8.31;57.98;98895.22;6783319;29;20583;-82
2022/01/06 07:51:16;;;;;;;14.23;7.97;;;;;;;8.36;58.63;98893.63;6774477;29;20234;-82
2022/01/06 07:54:42;;;;;;;10.50;6.20;;;;;;;8.73;56.94;98896.09;6774471;29;20245;-82
2022/01/06 07:58:03;;;;;;;12.50;6.80;;;;;;;8.31;57.88;98901.41;6774510;29;20232;-82
2022/01/06 08:01:25;;;;;;;13.27;7.23;;;;;;;7.78;58.55;98852.56;6772934;29;20241;-81
2022/01/06 08:04:47;;;;;;;9.83;7.40;;;;;;;8.19;58.38;98926.22;6779661;29;20213;-82
2022/01/06 08:08:08;;;;;;;15.97;6.73;;;;;;;8.52;57.76;98927.47;6776764;29;20272;-82
2022/01/06 08:11:31;;;;;;;12.33;6.83;;;;;;;8.52;57.28;98948.97;6773113;29;20240;-82
2022/01/06 08:14:53;;;;;;;10.90;6.60;;;;;;;8.51;57.39;98933.88;6789663;29;20214;-82
2022/01/06 08:18:14;;;;;;;12.77;6.40;;;;;;;8.71;57.40;98938.47;6773270;29;20220;-80
2022/01/06 08:21:36;;;;;;;15.63;7.07;;;;;;;8.64;56.59;98948.31;6797342;29;20265;-81
2022/01/06 08:24:57;;;;;;;11.27;7.87;;;;;;;8.35;57.45;98948.38;6785851;29;20213;-81
2022/01/06 08:28:20;;;;;;;13.97;8.80;;;;;;;8.17;59.21;98955.94;6781116;29;20213;-81
2022/01/06 08:31:42;;;;;;;12.97;7.87;;;;;;;8.92;58.34;98954.63;6783702;29;20255;-81
2022/01/06 08:35:04;;;;;;;13.07;6.50;;;;;;;9.04;57.25;98942.34;6781837;29;20210;-81
2022/01/06 08:38:26;;;;;;;15.73;8.70;;;;;;;8.98;57.03;98939.56;6781553;29;20206;-80
2022/01/06 08:41:47;;;;;;;13.07;9.53;;;;;;;8.55;56.12;98922.56;6772707;29;20245;-80
2022/01/06 08:45:12;;;;;;;13.43;8.23;;;;;;;8.99;57.28;98931.31;6779223;29;20236;-81
2022/01/06 08:48:33;;;;;;;13.60;8.73;;;;;;;9.44;55.91;98964.03;6780066;29;20197;-80
2022/01/06 08:51:55;;;;;;;12.50;7.47;;;;;;;9.58;56.68;98948.81;6786392;29;20242;-81
2022/01/06 08:55:16;;;;;;;12.97;8.03;;;;;;;9.60;56.29;98962.91;6777702;29;20223;-81
2022/01/06 08:58:38;;;;;;;13.83;8.60;;;;;;;9.01;57.32;98964.22;6783449;29;20214;-81
2022/01/06 09:02:01;;;;;;;16.07;8.90;;;;;;;8.98;58.19;98976.19;6784290;29;20253;-81
2022/01/06 09:05:23;;;;;;;14.83;8.37;;;;;;;9.10;58.18;98953.13;6776593;29;20230;-80
2022/01/06 09:08:44;;;;;;;15.43;8.20;;;;;;;9.07;57.49;98962.63;6772132;29;20246;-81
2022/01/06 09:12:07;;;;;;;19.17;14.20;;;;;;;9.35;57.28;98983.19;6782256;29;20238;-81
2022/01/06 09:15:30;;;;;;;13.73;7.13;;;;;;;9.38;57.34;98969.31;6770138;29;20288;-81
2022/01/06 09:18:53;;;;;;;10.90;6.00;;;;;;;9.13;56.30;98994.16;6786918;29;20212;-81
2022/01/06 09:22:15;;;;;;;10.33;5.53;;;;;;;8.78;56.30;98977.00;6784844;29;20251;-82
2022/01/06 09:25:36;;;;;;;11.30;6.40;;;;;;;9.07;56.73;98996.56;6779998;29;20217;-80
2022/01/06 09:28:58;;;;;;;11.10;6.67;;;;;;;9.38;56.01;99001.63;6802344;29;20228;-80
2022/01/06 09:32:20;;;;;;;13.17;6.87;;;;;;;9.49;55.87;98998.41;6803082;29;20235;-81
2022/01/06 09:35:43;;;;;;;11.73;7.33;;;;;;;9.85;55.62;98991.88;6788184;29;20223;-84
2022/01/06 09:39:06;;;;;;;10.93;6.10;;;;;;;9.95;55.97;99005.00;6781067;29;20201;-83
2022/01/06 09:42:27;;;;;;;10.30;7.30;;;;;;;10.03;55.59;99023.75;6778350;29;20253;-82
2022/01/06 09:45:49;;;;;;;10.10;6.73;;;;;;;10.09;54.76;99010.31;6776512;29;20222;-81
2022/01/06 09:49:11;;;;;;;13.20;6.27;;;;;;;10.11;54.28;99000.19;6782033;29;20207;-82
2022/01/06 09:52:34;;;;;;;15.77;7.83;;;;;;;10.46;54.32;99018.00;6786635;29;20237;-83
2022/01/06 09:55:56;;;;;;;8.27;5.50;;;;;;;10.40;53.82;99009.91;6779078;29;20227;-82
2022/01/06 09:59:17;;;;;;;12.10;6.70;;;;;;;10.65;54.09;99017.31;6785125;29;20210;-83
2022/01/06 10:02:40;;;;;;;9.23;6.70;;;;;;;10.49;54.14;98997.91;6783896;29;20243;-81
2022/01/06 10:06:12;;;;;;;13.70;5.97;;;;;;;10.88;53.56;99016.97;6781279;29;20209;-82
2022/01/06 10:09:37;;;;;;;12.60;6.97;;;;;;;10.45;52.90;99010.16;6786499;29;20210;-81
2022/01/06 10:13:00;;;;;;;13.37;7.17;;;;;;;10.69;53.13;99023.94;6788852;29;20235;-82
2022/01/06 10:16:22;;;;;;;19.90;6.67;;;;;;;10.15;53.48;98982.59;6785675;29;20298;-82
2022/01/06 10:19:45;;;;;;;9.87;5.70;;;;;;;9.79;53.72;98986.44;6787534;29;20628;-81
2022/01/06 10:23:11;;;;;;;11.03;6.60;;;;;;;9.71;54.21;99022.44;6777463;29;20251;-81
2022/01/06 10:26:35;;;;;;;18.70;6.33;;;;;;;9.92;53.94;99024.28;6785867;29;20199;-82
2022/01/06 10:29:57;;;;;;;12.43;5.87;;;;;;;9.74;53.83;99016.66;6776872;29;20217;-82
2022/01/06 10:33:20;;;;;;;9.50;5.33;;;;;;;9.74;54.44;99002.38;6782096;29;20243;-82
2022/01/06 10:36:42;;;;;;;13.93;6.60;;;;;;;9.94;54.01;99011.44;6778481;29;20629;-82
2022/01/06 10:40:06;;;;;;;10.43;5.17;;;;;;;9.48;54.02;99026.34;6781557;29;20210;-81
2022/01/06 10:43:34;;;;;;;10.03;5.27;;;;;;;9.66;54.46;99016.81;6782490;29;20255;-82
2022/01/06 10:46:58;;;;;;;10.90;5.53;;;;;;;9.61;55.30;99019.25;6810916;23;20452;-76
2022/01/06 10:50:21;;;;;;;11.93;5.07;;;;;;;9.54;54.61;98993.28;6761205;29;20210;-76
2022/01/06 10:53:56;;;;;;;10.07;4.87;;;;;;;9.90;53.93;98999.38;6758566;29;20207;-79
2022/01/06 10:57:19;;;;;;;6.93;3.67;;;;;;;9.74;52.44;99024.72;6763973;29;20254;-77
2022/01/06 11:00:43;;;;;;;8.83;5.43;;;;;;;10.20;52.14;99027.78;6764682;29;20238;-77
2022/01/06 11:04:06;;;;;;;11.10;4.63;;;;;;;10.19;51.88;99018.06;6743187;29;20219;-76
2022/01/06 11:07:30;;;;;;;9.80;3.97;;;;;;;10.22;50.94;99014.97;6760661;29;20214;-77
2022/01/06 11:11:03;;;;;;;12.53;5.03;;;;;;;10.28;51.44;99009.63;6757342;29;20227;-76
2022/01/06 11:14:25;;;;;;;8.53;4.23;;;;;;;10.71;50.73;99031.84;6752844;29;20207;-77
2022/01/06 11:17:50;;;;;;;12.73;5.27;;;;;;;9.83;52.30;99036.19;6751322;29;20242;-76
2022/01/06 11:21:15;;;;;;;6.97;3.87;;;;;;;10.52;50.54;99017.22;6761828;29;20220;-77
2022/01/06 11:24:38;;;;;;;12.03;4.20;;;;;;;10.72;50.13;99045.13;6751521;29;20701;-77
2022/01/06 11:28:06;;;;;;;10.30;4.30;;;;;;;10.91;49.93;99041.69;6763619;29;20211;-77
2022/01/06 11:31:29;;;;;;;11.63;4.70;;;;;;;9.82;51.00;99039.91;6760468;29;20215;-76
2022/01/06 11:35:02;;;;;;;9.23;3.57;;;;;;;9.79;52.37;99035.75;6765897;29;20223;-77
2022/01/06 11:38:26;;;;;;;7.90;4.10;;;;;;;10.13;52.17;99037.69;6767601;29;20203;-77
2022/01/06 11:41:47;;;;;;;20.33;8.27;;;;;;;10.00;50.94;99027.66;6756653;29;20236;-77
2022/01/06 11:45:19;;;;;;;20.53;10.50;;;;;;;9.80;52.51;99042.81;6754307;29;20310;-78
2022/01/06 11:48:48;;;;;;;22.73;12.33;;;;;;;9.75;52.66;99047.13;6766206;29;20210;-78
2022/01/06 11:52:13;;;;;;;27.50;14.90;;;;;;;9.73;53.46;99050.00;6763759;29;20661;-78
2022/01/06 11:55:36;;;;;;;14.13;10.10;;;;;;;9.36;54.52;99052.97;6765682;29;20219;-77
2022/01/06 11:59:03;;;;;;;12.57;5.10;;;;;;;9.39;54.47;99057.94;6760578;29;20216;-77
2022/01/06 12:02:24;;;;;;;15.93;6.50;;;;;;;9.51;55.48;99047.53;6755865;29;20589;-77
2022/01/06 12:05:49;;;;;;;15.50;6.07;;;;;;;9.42;54.60;99046.81;6754378;29;20231;-77
2022/01/06 12:09:22;;;;;;;13.53;6.33;;;;;;;9.57;54.80;99055.63;6762166;29;20215;-77
2022/01/06 12:12:44;;;;;;;12.90;5.43;;;;;;;9.42;54.75;99056.72;6753764;29;20288;-80
2022/01/06 12:16:09;;;;;;;10.57;5.43;;;;;;;9.41;54.38;99049.69;6753050;29;20709;-79
2022/01/06 12:19:34;;;;;;;11.17;3.83;;;;;;;8.61;54.90;99047.28;6769315;29;20672;-79
2022/01/06 12:22:57;;;;;;;11.60;5.83;;;;;;;9.37;53.27;99043.00;6752383;29;20243;-78
2022/01/06 12:26:20;;;;;;;6.87;3.93;;;;;;;8.82;53.57;99045.50;6757771;29;20211;-79
2022/01/06 12:29:42;;;;;;;10.17;4.20;;;;;;;8.83;54.76;99040.97;6764431;29;20223;-78
2022/01/06 12:33:06;;;;;;;12.37;5.90;;;;;;;9.00;52.97;99021.72;6759358;29;20230;-78
2022/01/06 12:36:30;;;;;;;10.50;4.33;;;;;;;8.46;53.38;99006.16;6763764;29;20211;-78
2022/01/06 12:39:51;;;;;;;11.43;5.00;;;;;;;8.92;53.81;99037.13;6746543;29;20220;-78
2022/01/06 12:43:17;;;;;;;9.23;4.47;;;;;;;8.75;54.42;99023.09;6749211;29;20245;-78
2022/01/06 12:46:41;;;;;;;10.47;5.97;;;;;;;8.91;54.67;99036.28;6766248;29;20218;-78
2022/01/06 12:50:03;;;;;;;9.97;5.67;;;;;;;8.87;54.26;99028.78;6758821;29;20215;-78
2022/01/06 12:53:26;;;;;;;14.97;6.00;;;;;;;8.91;54.05;99009.41;6760492;29;20275;-78
2022/01/06 12:56:53;;;;;;;12.50;5.90;;;;;;;9.21;53.89;99037.91;6744161;29;20219;-78
2022/01/06 13:00:18;;;;;;;15.80;6.40;;;;;;;8.91;55.58;99033.59;6755717;29;20225;-79
2022/01/06 13:03:43;;;;;;;10.37;6.33;;;;;;;9.05;55.13;99036.25;6758130;29;20723;-77
2022/01/06 13:07:10;;;;;;;16.07;7.00;;;;;;;9.07;54.88;98998.41;6753575;29;20218;-79
2022/01/06 13:10:32;;;;;;;7.90;5.00;;;;;;;9.42;53.83;99029.81;6752547;29;20223;-77
2022/01/06 13:13:56;;;;;;;10.07;5.80;;;;;;;9.78;53.43;99033.25;6743814;29;20223;-75
2022/01/06 13:17:22;;;;;;;12.13;6.30;;;;;;;10.13;52.50;99027.78;6752757;29;20210;-77
2022/01/06 13:20:47;;;;;;;9.30;5.20;;;;;;;10.10;52.38;99027.34;6764759;29;20208;-77
2022/01/06 13:24:17;;;;;;;15.47;6.37;;;;;;;10.02;52.28;99033.66;6751466;29;20223;-77
2022/01/06 13:27:39;;;;;;;12.13;4.77;;;;;;;9.66;55.19;99030.28;6753832;29;20631;-77
2022/01/06 13:31:01;;;;;;;13.37;8.20;;;;;;;9.50;55.00;99045.84;6758730;29;20204;-77
2022/01/06 13:34:24;;;;;;;15.40;5.50;;;;;;;8.68;55.94;99041.00;6758081;29;20219;-77
2022/01/06 13:37:46;;;;;;;14.47;6.53;;;;;;;8.76;56.87;99031.97;6761018;29;20223;-77
2022/01/06 13:41:10;;;;;;;10.07;5.10;;;;;;;8.84;56.31;99040.75;6759802;29;20231;-77
2022/01/06 13:44:32;;;;;;;10.97;3.80;;;;;;;8.22;56.41;99052.09;6764939;29;20265;-77
2022/01/06 13:47:56;;;;;;;9.73;4.80;;;;;;;8.30;57.18;99041.28;6747478;29;20230;-78
2022/01/06 13:51:19;;;;;;;9.23;3.90;;;;;;;8.19;57.76;99053.25;6754110;29;20216;-78
2022/01/06 13:54:41;;;;;;;8.67;3.73;;;;;;;8.03;58.49;99058.81;6752833;29;20212;-77
2022/01/06 13:58:02;;;;;;;11.40;4.03;;;;;;;8.43;58.33;99058.41;6736490;29;20224;-77
2022/01/06 14:01:27;;;;;;;7.57;3.63;;;;;;;8.56;56.55;99057.75;6770987;29;20238;-77
2022/01/06 14:04:50;;;;;;;12.53;5.50;;;;;;;8.95;56.93;99061.78;6763047;29;20585;-77
2022/01/06 14:08:13;;;;;;;11.37;4.53;;;;;;;9.05;56.47;99067.72;6764856;29;20590;-77
2022/01/06 14:11:34;;;;;;;9.47;5.13;;;;;;;9.30;55.48;99066.34;6759856;29;20208;-77
2022/01/06 14:14:57;;;;;;;24.63;14.57;;;;;;;9.45;55.07;99081.41;6758874;29;20208;-76
2022/01/06 14:18:19;;;;;;;16.67;7.93;;;;;;;9.38;56.02;99058.13;6756683;29;20670;-78
2022/01/06 14:21:40;;;;;;;12.57;5.43;;;;;;;9.91;54.37;99081.84;6752524;29;20338;-77
2022/01/06 14:25:04;;;;;;;11.00;4.10;;;;;;;9.89;53.61;99091.97;6766258;29;20231;-77
2022/01/06 14:28:27;;;;;;;9.27;4.40;;;;;;;9.94;53.28;99100.31;6762150;29;20669;-76
2022/01/06 14:31:49;;;;;;;8.47;3.37;;;;;;;9.83;53.95;99098.13;6766424;29;20207;-77
2022/01/06 14:35:13;;;;;;;9.10;4.07;;;;;;;9.63;54.17;99097.94;6749316;29;20220;-77
2022/01/06 14:38:34;;;;;;;7.77;5.10;;;;;;;9.89;53.79;99119.75;6769973;29;20216;-77
2022/01/06 14:41:57;;;;;;;8.80;5.30;;;;;;;9.85;53.68;99121.16;6755510;29;20235;-77
2022/01/06 14:45:19;;;;;;;8.60;5.10;;;;;;;8.55;57.24;99116.03;6745189;29;20218;-77
2022/01/06 14:48:41;;;;;;;14.67;6.50;;;;;;;9.24;56.27;99110.97;6748388;29;20224;-77
2022/01/06 14:52:03;;;;;;;11.53;6.03;;;;;;;9.50;54.80;99121.22;6764788;29;20223;-80
2022/01/06 14:55:25;;;;;;;15.80;7.20;;;;;;;9.41;54.08;99085.50;6757936;29;20216;-77
2022/01/06 15:02:33;;;;;;;14.20;7.60;;;;;;;9.05;55.80;99130.38;6751989;29;20238;-78
2022/01/06 15:05:55;;;;;;;18.80;7.63;;;;;;;8.48;57.70;99135.78;6763076;29;20263;-77
2022/01/06 15:09:17;;;;;;;15.97;8.73;;;;;;;8.81;57.00;99105.66;6749937;29;20230;-77
2022/01/06 15:12:39;;;;;;;14.67;8.40;;;;;;;9.07;56.30;99132.06;6745601;29;20209;-77
2022/01/06 15:16:03;;;;;;;15.43;7.53;;;;;;;9.13;56.04;99135.69;6751390;29;20223;-77
2022/01/06 15:19:25;;;;;;;16.13;7.13;;;;;;;9.08;56.35;99140.78;6758617;29;20210;-77
2022/01/06 15:22:46;;;;;;;9.53;5.77;;;;;;;9.06;55.61;99147.38;6768596;29;20242;-77
2022/01/06 15:26:08;;;;;;;14.90;7.27;;;;;;;8.84;56.35;99142.09;6762892;29;20208;-77
2022/01/06 15:29:31;;;;;;;15.13;7.83;;;;;;;8.83;56.34;99153.88;6762756;29;20221;-77
2022/01/06 15:33:07;;;;;;;15.67;8.30;;;;;;;7.91;57.88;99100.53;6731550;29;20221;-81
2022/01/06 15:36:29;;;;;;;15.97;8.93;;;;;;;8.01;59.47;99124.47;6754343;29;20211;-79
2022/01/06 15:39:50;;;;;;;18.47;8.60;;;;;;;8.75;57.64;99157.50;6756609;29;20213;-77
2022/01/06 15:43:12;;;;;;;13.90;7.80;;;;;;;8.84;57.34;99161.75;6745739;29;20236;-76
2022/01/06 15:46:37;;;;;;;17.50;8.23;;;;;;;8.90;56.44;99152.13;6753318;29;20260;-81
2022/01/06 15:50:00;;;;;;;17.27;8.37;;;;;;;8.09;57.73;99132.44;6745928;29;20217;-79
2022/01/06 15:53:22;;;;;;;15.93;9.10;;;;;;;8.53;55.99;99120.78;6750901;29;20224;-79
2022/01/06 15:56:45;;;;;;;16.07;9.20;;;;;;;8.59;56.46;99141.53;6742698;29;20208;-79
2022/01/06 16:00:31;;;;;;;17.10;8.03;;;;;;;8.65;55.93;99132.72;6752179;29;20673;-79
2022/01/06 16:07:34;;;;;;;13.13;7.67;;;;;;;8.37;55.89;99130.88;6733074;29;20208;-79
2022/01/06 16:11:01;;;;;;;13.83;8.03;;;;;;;8.46;55.84;99149.41;6738774;29;20204;-80
2022/01/06 16:14:30;;;;;;;10.87;7.10;;;;;;;8.16;55.71;99093.94;6729497;29;20218;-79
2022/01/06 16:25:46;;;;;;;12.23;6.90;;;;;;;8.42;56.60;99161.53;6799360;23;20692;-82
2022/01/06 16:29:08;;;;;;;13.87;7.27;;;;;;;7.96;57.58;99175.19;6748274;29;20263;-84
2022/01/06 16:32:30;;;;;;;12.03;7.40;;;;;;;8.35;57.46;99181.22;6735273;29;20216;-85
2022/01/06 16:35:54;;;;;;;19.43;7.60;;;;;;;7.43;59.38;99181.38;6750954;29;20262;-81
2022/01/06 16:39:16;;;;;;;11.13;6.50;;;;;;;7.55;60.48;99177.28;6740893;29;20674;-84
2022/01/06 16:42:39;;;;;;;18.07;8.37;;;;;;;7.80;58.76;99173.44;6741033;29;20228;-85
2022/01/06 16:46:02;;;;;;;12.50;7.70;;;;;;;7.43;59.39;99192.09;6743674;29;20245;-83
2022/01/06 16:49:24;;;;;;;18.57;8.50;;;;;;;7.54;59.29;99164.06;6747229;29;20260;-85
2022/01/06 16:52:45;;;;;;;14.47;9.67;;;;;;;7.57;59.51;99199.44;6743802;29;20863;-85
2022/01/06 16:56:16;;;;;;;15.87;9.80;;;;;;;7.55;58.49;99150.44;6795483;23;20282;-84
2022/01/06 16:59:41;;;;;;;18.00;10.23;;;;;;;7.74;58.60;99178.69;6814696;29;20206;-82
2022/01/06 17:03:04;;;;;;;21.10;10.27;;;;;;;7.32;58.99;99203.22;6808743;29;20228;-84
2022/01/06 17:06:25;;;;;;;21.83;11.33;;;;;;;7.38;59.02;99215.13;6788017;29;20237;-85
2022/01/06 17:26:57;;;;;;;10.63;5.50;;;;;;;7.50;58.05;99217.25;6717106;29;20231;-86
2022/01/06 17:30:19;;;;;;;14.73;6.87;;;;;;;7.44;57.45;99211.75;6760390;29;20213;-85
2022/01/06 17:33:43;;;;;;;15.37;6.73;;;;;;;7.43;56.85;99202.03;6781853;29;20252;-85
2022/01/06 17:37:05;;;;;;;12.50;5.80;;;;;;;7.32;57.42;99223.88;6784016;29;20243;-87
2022/01/06 17:40:27;;;;;;;11.17;6.90;;;;;;;7.38;57.38;99226.66;6786331;29;20248;-85
2022/01/06 17:44:42;;;;;;;;;;;;;;;;;;;;;
2022/01/06 17:53:05;;;;;;;13.40;7.20;;;;;;;6.28;60.73;99226.78;6778242;29;20275;-85
2022/01/06 18:01:14;;;;;;;14.07;7.47;;;;;;;7.16;57.69;99229.28;6672306;29;20274;-84
2022/01/06 18:04:37;;;;;;;15.20;8.10;;;;;;;7.16;57.16;99234.66;6721831;29;20527;-85
2022/01/06 18:08:24;;;;;;;15.20;9.80;;;;;;;6.88;57.43;99242.28;6787042;29;20351;-83
2022/01/06 18:11:46;;;;;;;12.03;7.50;;;;;;;6.88;57.34;99226.19;6785511;29;20215;-86
2022/01/06 18:15:10;;;;;;;7.63;5.77;;;;;;;6.81;57.68;99219.84;6789982;29;20242;-85
2022/01/06 18:18:34;;;;;;;12.63;6.57;;;;;;;6.70;56.96;99173.81;6780416;29;20229;-84
2022/01/06 18:21:56;;;;;;;11.17;6.73;;;;;;;6.37;58.16;99245.34;6795954;29;20226;-85
2022/01/06 18:25:18;;;;;;;12.73;6.77;;;;;;;6.65;58.38;99245.81;6780901;29;20711;-86
2022/01/06 18:28:43;;;;;;;18.60;8.13;;;;;;;6.34;58.66;99248.38;6782256;29;20668;-87
2022/01/06 18:56:59;;;;;;;19.67;14.03;;;;;;;6.38;58.57;99238.97;6597371;29;20744;-86
2022/01/06 19:00:21;;;;;;;18.07;10.53;;;;;;;6.15;58.44;99213.06;6653819;29;20217;-88
2022/01/06 19:03:43;;;;;;;17.47;9.80;;;;;;;6.11;58.08;99199.19;6652280;29;20231;-87
2022/01/06 19:07:06;;;;;;;20.83;9.03;;;;;;;6.22;58.05;99235.47;6658634;29;20253;-85
2022/01/06 19:10:29;;;;;;;24.93;10.77;;;;;;;5.97;59.19;99231.13;6647714;29;20234;-87
2022/01/06 19:13:52;;;;;;;22.57;12.33;;;;;;;5.87;59.50;99233.97;6651302;29;20253;-86
2022/01/06 19:17:14;;;;;;;22.70;12.50;;;;;;;5.94;58.93;99240.31;6659041;29;20322;-87
2022/01/06 19:20:36;;;;;;;22.30;11.70;;;;;;;5.74;58.58;99230.91;6659272;29;20234;-86
2022/01/06 19:23:58;;;;;;;37.53;23.27;;;;;;;5.72;59.54;99235.56;6740315;29;20241;-85
2022/01/06 19:33:04;;;;;;;;;;;;;;;;;;;;;
2022/01/06 19:37:30;;;;;;;;;;;;;;;;;;;;;
2022/01/06 19:45:56;;;;;;;17.30;10.77;;;;;;;5.50;59.82;99238.88;6557643;30;20250;-86
2022/01/06 19:49:26;;;;;;;21.10;12.40;;;;;;;6.05;58.74;99249.84;6661201;29;20217;-86
2022/01/06 19:52:48;;;;;;;29.40;15.03;;;;;;;6.10;57.65;99237.66;6702558;29;20247;-87
2022/01/06 19:56:10;;;;;;;23.47;16.53;;;;;;;6.04;58.32;99235.66;6700134;29;20245;-86
2022/01/06 19:59:32;;;;;;;27.53;12.40;;;;;;;6.09;57.98;99243.19;6715445;29;20308;-87
2022/01/06 20:03:10;;;;;;;23.87;9.97;;;;;;;6.06;57.33;99236.31;6708312;29;20247;-88
2022/01/06 20:06:48;;;;;;;18.63;11.67;;;;;;;5.64;58.21;99232.03;6760340;29;20242;-85
2022/01/06 20:10:10;;;;;;;23.43;15.57;;;;;;;5.65;58.55;99236.41;6786078;29;20219;-85
2022/01/06 20:13:33;;;;;;;16.77;11.43;;;;;;;4.86;60.48;99245.75;6793554;29;20268;-84
2022/01/06 20:16:55;;;;;;;25.70;10.63;;;;;;;5.09;61.06;99229.03;6787270;29;20737;-88
2022/01/06 20:20:18;;;;;;;17.77;10.67;;;;;;;5.34;59.75;99241.47;6793047;29;20273;-88
2022/01/06 20:23:42;;;;;;;26.00;12.47;;;;;;;5.50;59.70;99235.34;6790075;29;20238;-84
2022/01/06 20:27:04;;;;;;;21.43;11.83;;;;;;;5.53;59.38;99235.00;6797144;29;20295;-84
2022/01/06 20:30:29;;;;;;;18.77;11.23;;;;;;;5.48;59.55;99242.69;6792485;29;20232;-86
2022/01/06 20:38:08;;;;;;;18.70;10.17;;;;;;;5.40;58.81;99245.34;6790035;29;20330;-86
2022/01/06 20:41:32;;;;;;;18.03;10.53;;;;;;;4.83;59.84;99196.16;6790962;29;20219;-85
2022/01/06 20:44:56;;;;;;;17.03;10.33;;;;;;;5.30;58.66;99212.56;6791524;29;20244;-87
2022/01/06 20:56:08;;;;;;;15.60;8.83;;;;;;;5.54;57.62;99244.72;6802003;29;20245;-90
2022/01/06 20:59:32;;;;;;;16.60;9.87;;;;;;;5.65;57.60;99255.94;6775435;29;20320;-87
2022/01/06 21:02:53;;;;;;;12.73;8.70;;;;;;;5.55;57.81;99257.91;6788420;29;20306;-86
2022/01/06 21:06:15;;;;;;;15.93;10.33;;;;;;;5.46;58.65;99258.06;6787632;29;20243;-84
2022/01/06 21:09:37;;;;;;;19.50;9.90;;;;;;;5.20;58.42;99251.94;6786869;29;20215;-86
2022/01/06 21:12:59;;;;;;;35.27;20.73;;;;;;;4.83;58.46;99152.59;6793798;29;20235;-86
2022/01/06 21:16:22;;;;;;;46.20;24.23;;;;;;;4.94;59.10;99237.78;6788158;29;20235;-85
2022/01/06 21:19:44;;;;;;;12.70;8.90;;;;;;;5.34;58.07;99240.63;6792551;29;20212;-86
2022/01/06 21:23:56;;;;;;;18.07;10.40;;;;;;;5.05;59.26;99250.84;6789736;29;20731;-85
2022/01/06 21:27:18;;;;;;;15.70;10.27;;;;;;;5.16;59.09;99240.75;6786618;29;20254;-85
2022/01/06 21:30:44;;;;;;;19.43;9.60;;;;;;;4.99;59.17;99244.34;6791800;29;20216;-85
2022/01/06 21:34:08;;;;;;;16.70;8.93;;;;;;;5.25;59.34;99239.75;6784791;29;20208;-88
